This is the latest recevied weather packets stored in our database for station/object VK4HIT-13. If no packets are shown the sender has not sent any weather packets the latest 10 day(s).
| Time | Temp. | Humidity | Pressure | Rain* | Wind** | Luminosity | Snow |
|---|---|---|---|---|---|---|---|
| 1777433383 | 23.89° C | 60% | 1023.2 hPa | 0 mm | - | - | - |
| 1777433083 | 23.89° C | 61% | 1023.2 hPa | 0 mm | - | - | - |
| 1777432783 | 23.89° C | 62% | 1023.2 hPa | 0 mm | - | - | - |
| 1777432483 | 23.89° C | 62% | 1023.3 hPa | 0 mm | - | - | - |
| 1777432183 | 23.33° C | 64% | 1023.3 hPa | 0 mm | - | - | - |
| 1777431883 | 22.78° C | 65% | 1023.4 hPa | 0 mm | - | - | - |
| 1777431583 | 22.78° C | 65% | 1023.5 hPa | 0 mm | - | - | - |
| 1777431283 | 23.33° C | 64% | 1023.5 hPa | 0 mm | - | - | - |
| 1777430983 | 23.33° C | 65% | 1023.5 hPa | 0 mm | - | - | - |
| 1777430683 | 23.33° C | 64% | 1023.8 hPa | 0 mm | - | - | - |
| 1777430383 | 23.33° C | 64% | 1023.7 hPa | 0.25 mm | - | - | - |
| 1777430083 | 23.33° C | 64% | 1023.8 hPa | 0.25 mm | - | - | - |
| 1777429783 | 23.33° C | 63% | 1023.8 hPa | 0.25 mm | - | - | - |
| 1777429483 | 22.78° C | 65% | 1023.9 hPa | 0.25 mm | - | - | - |
| 1777429183 | 22.22° C | 70% | 1023.7 hPa | 0.25 mm | - | - | - |
| 1777428883 | 21.67° C | 71% | 1023.8 hPa | 0.25 mm | - | - | - |
| 1777428583 | 21.11° C | 72% | 1023.9 hPa | 0.25 mm | - | - | - |
| 1777428283 | 21.11° C | 76% | 1023.9 hPa | 0.25 mm | - | - | - |
| 1777427983 | 21.11° C | 74% | 1024 hPa | 0.25 mm | - | - | - |
| 1777427683 | 21.11° C | 74% | 1024 hPa | 0.25 mm | - | - | - |
| 1777427383 | 21.11° C | 73% | 1024.1 hPa | 0.25 mm | - | - | - |
| 1777427083 | 22.22° C | 70% | 1024.2 hPa | 0.25 mm | - | - | - |
| 1777426783 | 23.89° C | 62% | 1024.1 hPa | 0 mm | - | - | - |
| 1777426483 | 22.78° C | 62% | 1024.1 hPa | 0 mm | - | - | - |
| 1777426183 | 22.78° C | 62% | 1024.2 hPa | 0 mm | - | - | - |
* Rain latest hour (hover to see other rain measurements)
** Current wind speed in m/s (hover to see current wind gust speed)